sensor_id;sensor_type;location;lat;lon;timestamp;P1;durP1;ratioP1;P2;durP2;ratioP2
3795;SDS011;1913;50.660;7.834;2023-05-10T00:02:24;8.17;;;5.90;;
3795;SDS011;1913;50.660;7.834;2023-05-10T00:04:50;11.10;;;6.50;;
3795;SDS011;1913;50.660;7.834;2023-05-10T00:07:15;7.70;;;6.17;;
3795;SDS011;1913;50.660;7.834;2023-05-10T00:09:42;6.67;;;5.97;;
3795;SDS011;1913;50.660;7.834;2023-05-10T00:12:08;6.67;;;5.97;;
3795;SDS011;1913;50.660;7.834;2023-05-10T00:14:34;10.33;;;5.83;;
3795;SDS011;1913;50.660;7.834;2023-05-10T00:16:59;8.93;;;6.57;;
3795;SDS011;1913;50.660;7.834;2023-05-10T00:19:25;10.63;;;7.77;;
3795;SDS011;1913;50.660;7.834;2023-05-10T00:21:50;6.87;;;5.60;;
3795;SDS011;1913;50.660;7.834;2023-05-10T00:24:16;9.13;;;6.00;;
3795;SDS011;1913;50.660;7.834;2023-05-10T00:26:41;7.40;;;6.00;;
3795;SDS011;1913;50.660;7.834;2023-05-10T00:29:07;5.97;;;4.80;;
3795;SDS011;1913;50.660;7.834;2023-05-10T00:31:32;11.20;;;6.70;;
3795;SDS011;1913;50.660;7.834;2023-05-10T00:33:58;7.80;;;6.07;;
3795;SDS011;1913;50.660;7.834;2023-05-10T00:36:23;5.83;;;5.10;;
3795;SDS011;1913;50.660;7.834;2023-05-10T00:38:48;5.67;;;5.07;;
3795;SDS011;1913;50.660;7.834;2023-05-10T00:41:14;5.73;;;5.13;;
3795;SDS011;1913;50.660;7.834;2023-05-10T00:43:39;4.83;;;4.33;;
3795;SDS011;1913;50.660;7.834;2023-05-10T00:46:04;5.90;;;4.97;;
3795;SDS011;1913;50.660;7.834;2023-05-10T00:48:30;10.10;;;4.20;;
3795;SDS011;1913;50.660;7.834;2023-05-10T00:50:56;4.93;;;4.23;;
3795;SDS011;1913;50.660;7.834;2023-05-10T00:53:21;7.73;;;5.90;;
3795;SDS011;1913;50.660;7.834;2023-05-10T00:55:47;6.70;;;6.00;;
3795;SDS011;1913;50.660;7.834;2023-05-10T00:58:12;14.07;;;6.33;;
3795;SDS011;1913;50.660;7.834;2023-05-10T01:00:38;8.10;;;5.77;;
3795;SDS011;1913;50.660;7.834;2023-05-10T01:03:06;5.67;;;5.13;;
3795;SDS011;1913;50.660;7.834;2023-05-10T01:05:32;9.33;;;5.77;;
3795;SDS011;1913;50.660;7.834;2023-05-10T01:07:57;7.23;;;6.27;;
3795;SDS011;1913;50.660;7.834;2023-05-10T01:10:23;7.03;;;6.20;;
3795;SDS011;1913;50.660;7.834;2023-05-10T01:12:48;8.50;;;6.77;;
3795;SDS011;1913;50.660;7.834;2023-05-10T01:15:14;8.17;;;6.50;;
3795;SDS011;1913;50.660;7.834;2023-05-10T01:17:42;15.53;;;6.60;;
3795;SDS011;1913;50.660;7.834;2023-05-10T01:20:09;8.40;;;6.77;;
3795;SDS011;1913;50.660;7.834;2023-05-10T01:34:20;11.50;;;8.40;;
3795;SDS011;1913;50.660;7.834;2023-05-10T01:37:24;12.60;;;9.07;;
3795;SDS011;1913;50.660;7.834;2023-05-10T01:39:53;13.27;;;8.73;;
3795;SDS011;1913;50.660;7.834;2023-05-10T01:42:29;13.80;;;9.60;;
3795;SDS011;1913;50.660;7.834;2023-05-10T01:47:43;13.17;;;9.07;;
3795;SDS011;1913;50.660;7.834;2023-05-10T01:50:29;18.60;;;10.27;;
3795;SDS011;1913;50.660;7.834;2023-05-10T01:52:57;17.20;;;11.47;;
3795;SDS011;1913;50.660;7.834;2023-05-10T01:55:25;17.37;;;10.97;;
3795;SDS011;1913;50.660;7.834;2023-05-10T01:57:58;18.00;;;11.00;;
3795;SDS011;1913;50.660;7.834;2023-05-10T02:00:28;12.17;;;8.90;;
3795;SDS011;1913;50.660;7.834;2023-05-10T02:02:55;12.30;;;8.57;;
3795;SDS011;1913;50.660;7.834;2023-05-10T02:05:21;12.47;;;9.27;;
3795;SDS011;1913;50.660;7.834;2023-05-10T02:07:47;14.53;;;9.10;;
3795;SDS011;1913;50.660;7.834;2023-05-10T02:10:15;16.40;;;10.23;;
3795;SDS011;1913;50.660;7.834;2023-05-10T02:12:41;15.47;;;9.90;;
3795;SDS011;1913;50.660;7.834;2023-05-10T02:15:10;20.33;;;11.50;;
3795;SDS011;1913;50.660;7.834;2023-05-10T02:17:37;13.77;;;9.33;;
3795;SDS011;1913;50.660;7.834;2023-05-10T02:20:05;19.23;;;11.80;;
3795;SDS011;1913;50.660;7.834;2023-05-10T02:22:31;14.63;;;9.47;;
3795;SDS011;1913;50.660;7.834;2023-05-10T02:24:58;18.60;;;10.57;;
3795;SDS011;1913;50.660;7.834;2023-05-10T02:27:26;17.03;;;10.77;;
3795;SDS011;1913;50.660;7.834;2023-05-10T02:29:52;15.60;;;9.60;;
3795;SDS011;1913;50.660;7.834;2023-05-10T02:32:19;16.70;;;10.47;;
3795;SDS011;1913;50.660;7.834;2023-05-10T02:34:47;18.13;;;10.47;;
3795;SDS011;1913;50.660;7.834;2023-05-10T02:37:17;14.13;;;9.67;;
3795;SDS011;1913;50.660;7.834;2023-05-10T02:39:49;18.73;;;10.23;;
3795;SDS011;1913;50.660;7.834;2023-05-10T02:42:16;17.70;;;10.13;;
3795;SDS011;1913;50.660;7.834;2023-05-10T02:44:45;21.37;;;11.03;;
3795;SDS011;1913;50.660;7.834;2023-05-10T02:47:12;23.30;;;9.20;;
3795;SDS011;1913;50.660;7.834;2023-05-10T02:49:38;13.30;;;8.43;;
3795;SDS011;1913;50.660;7.834;2023-05-10T02:52:04;12.67;;;7.87;;
3795;SDS011;1913;50.660;7.834;2023-05-10T02:54:41;10.97;;;7.77;;
3795;SDS011;1913;50.660;7.834;2023-05-10T02:57:10;10.87;;;7.30;;
3795;SDS011;1913;50.660;7.834;2023-05-10T02:59:44;17.03;;;8.23;;
3795;SDS011;1913;50.660;7.834;2023-05-10T03:02:11;10.50;;;7.27;;
3795;SDS011;1913;50.660;7.834;2023-05-10T03:04:37;12.00;;;7.10;;
3795;SDS011;1913;50.660;7.834;2023-05-10T03:07:03;10.90;;;7.40;;
3795;SDS011;1913;50.660;7.834;2023-05-10T03:09:29;12.33;;;7.10;;
3795;SDS011;1913;50.660;7.834;2023-05-10T03:12:04;11.73;;;6.80;;
3795;SDS011;1913;50.660;7.834;2023-05-10T03:14:49;8.70;;;6.30;;
3795;SDS011;1913;50.660;7.834;2023-05-10T03:17:16;8.27;;;6.30;;
3795;SDS011;1913;50.660;7.834;2023-05-10T03:19:55;8.07;;;5.33;;
3795;SDS011;1913;50.660;7.834;2023-05-10T03:22:44;8.90;;;5.80;;
3795;SDS011;1913;50.660;7.834;2023-05-10T03:25:15;9.30;;;5.60;;
3795;SDS011;1913;50.660;7.834;2023-05-10T03:27:42;11.17;;;5.70;;
3795;SDS011;1913;50.660;7.834;2023-05-10T03:30:10;8.97;;;5.47;;
3795;SDS011;1913;50.660;7.834;2023-05-10T03:32:37;5.83;;;4.87;;
3795;SDS011;1913;50.660;7.834;2023-05-10T03:35:07;6.97;;;5.27;;
3795;SDS011;1913;50.660;7.834;2023-05-10T03:37:33;9.20;;;4.87;;
3795;SDS011;1913;50.660;7.834;2023-05-10T03:39:59;6.70;;;5.27;;
3795;SDS011;1913;50.660;7.834;2023-05-10T03:42:24;6.73;;;4.60;;
3795;SDS011;1913;50.660;7.834;2023-05-10T03:44:50;6.77;;;5.53;;
3795;SDS011;1913;50.660;7.834;2023-05-10T03:47:15;5.40;;;4.37;;
3795;SDS011;1913;50.660;7.834;2023-05-10T03:49:40;7.80;;;4.43;;
3795;SDS011;1913;50.660;7.834;2023-05-10T03:52:06;5.90;;;5.00;;
3795;SDS011;1913;50.660;7.834;2023-05-10T03:54:31;6.70;;;5.10;;
3795;SDS011;1913;50.660;7.834;2023-05-10T03:56:57;8.93;;;5.20;;
3795;SDS011;1913;50.660;7.834;2023-05-10T03:59:22;10.03;;;4.67;;
3795;SDS011;1913;50.660;7.834;2023-05-10T04:01:47;7.47;;;5.00;;
3795;SDS011;1913;50.660;7.834;2023-05-10T04:04:13;7.10;;;5.10;;
3795;SDS011;1913;50.660;7.834;2023-05-10T04:06:38;8.23;;;5.30;;
3795;SDS011;1913;50.660;7.834;2023-05-10T04:09:04;11.77;;;6.17;;
3795;SDS011;1913;50.660;7.834;2023-05-10T04:11:29;6.63;;;4.50;;
3795;SDS011;1913;50.660;7.834;2023-05-10T04:14:15;5.87;;;4.27;;
3795;SDS011;1913;50.660;7.834;2023-05-10T04:17:01;7.00;;;4.13;;
3795;SDS011;1913;50.660;7.834;2023-05-10T04:19:46;5.77;;;4.30;;
3795;SDS011;1913;50.660;7.834;2023-05-10T04:22:32;4.93;;;3.80;;
3795;SDS011;1913;50.660;7.834;2023-05-10T04:25:17;6.07;;;3.87;;
3795;SDS011;1913;50.660;7.834;2023-05-10T04:28:02;5.47;;;3.43;;
3795;SDS011;1913;50.660;7.834;2023-05-10T04:30:48;5.90;;;3.80;;
3795;SDS011;1913;50.660;7.834;2023-05-10T04:33:33;6.83;;;4.37;;
3795;SDS011;1913;50.660;7.834;2023-05-10T04:35:59;7.17;;;4.50;;
3795;SDS011;1913;50.660;7.834;2023-05-10T04:38:28;8.30;;;4.73;;
3795;SDS011;1913;50.660;7.834;2023-05-10T04:40:54;8.40;;;5.37;;
3795;SDS011;1913;50.660;7.834;2023-05-10T04:43:28;9.23;;;6.80;;
3795;SDS011;1913;50.660;7.834;2023-05-10T04:45:55;11.00;;;7.20;;
3795;SDS011;1913;50.660;7.834;2023-05-10T04:48:21;16.90;;;8.87;;
3795;SDS011;1913;50.660;7.834;2023-05-10T04:50:47;12.40;;;7.60;;
3795;SDS011;1913;50.660;7.834;2023-05-10T04:53:12;16.57;;;8.70;;
3795;SDS011;1913;50.660;7.834;2023-05-10T04:55:37;18.27;;;9.37;;
3795;SDS011;1913;50.660;7.834;2023-05-10T04:58:03;17.37;;;9.83;;
3795;SDS011;1913;50.660;7.834;2023-05-10T05:00:28;19.00;;;9.60;;
3795;SDS011;1913;50.660;7.834;2023-05-10T05:02:53;14.63;;;8.60;;
3795;SDS011;1913;50.660;7.834;2023-05-10T05:05:19;23.57;;;9.83;;
3795;SDS011;1913;50.660;7.834;2023-05-10T05:07:45;14.93;;;8.37;;
3795;SDS011;1913;50.660;7.834;2023-05-10T05:10:10;13.27;;;7.00;;
3795;SDS011;1913;50.660;7.834;2023-05-10T05:12:36;19.97;;;8.23;;
3795;SDS011;1913;50.660;7.834;2023-05-10T05:15:01;13.50;;;7.17;;
3795;SDS011;1913;50.660;7.834;2023-05-10T05:17:27;12.10;;;7.90;;
3795;SDS011;1913;50.660;7.834;2023-05-10T05:19:52;16.83;;;7.40;;
3795;SDS011;1913;50.660;7.834;2023-05-10T05:22:18;13.13;;;7.13;;
3795;SDS011;1913;50.660;7.834;2023-05-10T05:24:45;11.30;;;6.63;;
3795;SDS011;1913;50.660;7.834;2023-05-10T05:27:10;14.20;;;7.23;;
3795;SDS011;1913;50.660;7.834;2023-05-10T05:29:36;14.33;;;6.93;;
3795;SDS011;1913;50.660;7.834;2023-05-10T05:32:02;11.00;;;6.13;;
3795;SDS011;1913;50.660;7.834;2023-05-10T05:34:29;9.57;;;6.03;;
3795;SDS011;1913;50.660;7.834;2023-05-10T05:36:54;12.27;;;6.60;;
3795;SDS011;1913;50.660;7.834;2023-05-10T05:39:20;12.17;;;6.43;;
3795;SDS011;1913;50.660;7.834;2023-05-10T05:41:46;9.23;;;5.40;;
3795;SDS011;1913;50.660;7.834;2023-05-10T05:44:11;7.10;;;4.23;;
3795;SDS011;1913;50.660;7.834;2023-05-10T05:46:37;6.23;;;5.00;;
3795;SDS011;1913;50.660;7.834;2023-05-10T05:49:03;11.27;;;6.73;;
3795;SDS011;1913;50.660;7.834;2023-05-10T05:51:28;9.57;;;6.57;;
3795;SDS011;1913;50.660;7.834;2023-05-10T05:53:54;11.57;;;6.77;;
3795;SDS011;1913;50.660;7.834;2023-05-10T05:56:20;9.53;;;6.03;;
3795;SDS011;1913;50.660;7.834;2023-05-10T05:58:52;10.57;;;6.60;;
3795;SDS011;1913;50.660;7.834;2023-05-10T06:01:18;8.50;;;6.40;;
3795;SDS011;1913;50.660;7.834;2023-05-10T06:03:50;9.30;;;6.50;;
3795;SDS011;1913;50.660;7.834;2023-05-10T06:06:34;11.80;;;6.90;;
3795;SDS011;1913;50.660;7.834;2023-05-10T06:09:19;12.87;;;8.10;;
3795;SDS011;1913;50.660;7.834;2023-05-10T06:12:05;12.83;;;9.00;;
3795;SDS011;1913;50.660;7.834;2023-05-10T06:14:50;14.77;;;9.57;;
3795;SDS011;1913;50.660;7.834;2023-05-10T06:17:36;15.17;;;10.20;;
3795;SDS011;1913;50.660;7.834;2023-05-10T06:20:01;14.33;;;10.10;;
3795;SDS011;1913;50.660;7.834;2023-05-10T06:22:27;18.27;;;11.30;;
3795;SDS011;1913;50.660;7.834;2023-05-10T06:24:52;16.90;;;9.97;;
3795;SDS011;1913;50.660;7.834;2023-05-10T06:27:17;15.57;;;10.47;;
3795;SDS011;1913;50.660;7.834;2023-05-10T06:29:43;15.13;;;10.43;;
3795;SDS011;1913;50.660;7.834;2023-05-10T06:32:08;14.10;;;9.47;;
3795;SDS011;1913;50.660;7.834;2023-05-10T06:34:34;17.53;;;10.90;;
3795;SDS011;1913;50.660;7.834;2023-05-10T06:36:59;12.50;;;8.37;;
3795;SDS011;1913;50.660;7.834;2023-05-10T06:39:25;15.37;;;9.03;;
3795;SDS011;1913;50.660;7.834;2023-05-10T06:41:50;13.53;;;8.43;;
3795;SDS011;1913;50.660;7.834;2023-05-10T06:44:15;18.10;;;9.90;;
3795;SDS011;1913;50.660;7.834;2023-05-10T06:46:41;22.63;;;10.70;;
3795;SDS011;1913;50.660;7.834;2023-05-10T06:49:06;17.80;;;10.70;;
3795;SDS011;1913;50.660;7.834;2023-05-10T06:51:32;19.20;;;10.27;;
3795;SDS011;1913;50.660;7.834;2023-05-10T06:53:58;18.67;;;10.20;;
3795;SDS011;1913;50.660;7.834;2023-05-10T06:56:23;13.63;;;8.90;;
3795;SDS011;1913;50.660;7.834;2023-05-10T06:58:48;18.73;;;11.57;;
3795;SDS011;1913;50.660;7.834;2023-05-10T07:01:14;19.77;;;12.10;;
3795;SDS011;1913;50.660;7.834;2023-05-10T07:03:39;26.60;;;15.20;;
3795;SDS011;1913;50.660;7.834;2023-05-10T07:06:04;22.10;;;13.43;;
3795;SDS011;1913;50.660;7.834;2023-05-10T07:08:32;28.37;;;15.93;;
3795;SDS011;1913;50.660;7.834;2023-05-10T07:10:59;33.50;;;17.27;;
3795;SDS011;1913;50.660;7.834;2023-05-10T07:13:25;35.93;;;18.70;;
3795;SDS011;1913;50.660;7.834;2023-05-10T07:15:51;38.80;;;18.53;;
3795;SDS011;1913;50.660;7.834;2023-05-10T07:18:16;34.90;;;17.27;;
3795;SDS011;1913;50.660;7.834;2023-05-10T07:20:42;33.77;;;17.53;;
3795;SDS011;1913;50.660;7.834;2023-05-10T07:23:07;27.40;;;15.20;;
3795;SDS011;1913;50.660;7.834;2023-05-10T07:25:33;35.00;;;17.90;;
3795;SDS011;1913;50.660;7.834;2023-05-10T07:27:59;31.13;;;16.90;;
3795;SDS011;1913;50.660;7.834;2023-05-10T07:30:24;33.73;;;16.00;;
3795;SDS011;1913;50.660;7.834;2023-05-10T07:32:50;26.97;;;15.67;;
3795;SDS011;1913;50.660;7.834;2023-05-10T07:35:15;26.70;;;14.47;;
3795;SDS011;1913;50.660;7.834;2023-05-10T07:37:40;24.10;;;14.40;;
3795;SDS011;1913;50.660;7.834;2023-05-10T07:40:06;21.97;;;13.00;;
3795;SDS011;1913;50.660;7.834;2023-05-10T07:42:33;25.20;;;13.40;;
3795;SDS011;1913;50.660;7.834;2023-05-10T07:44:58;19.07;;;12.10;;
3795;SDS011;1913;50.660;7.834;2023-05-10T07:47:43;28.57;;;12.20;;
3795;SDS011;1913;50.660;7.834;2023-05-10T07:50:11;24.23;;;13.00;;
3795;SDS011;1913;50.660;7.834;2023-05-10T07:52:43;19.90;;;10.87;;
3795;SDS011;1913;50.660;7.834;2023-05-10T07:55:28;16.43;;;10.97;;
3795;SDS011;1913;50.660;7.834;2023-05-10T07:57:54;14.03;;;9.30;;
3795;SDS011;1913;50.660;7.834;2023-05-10T08:00:20;17.20;;;10.40;;
3795;SDS011;1913;50.660;7.834;2023-05-10T08:02:45;13.50;;;9.70;;
3795;SDS011;1913;50.660;7.834;2023-05-10T08:05:11;13.60;;;9.00;;
3795;SDS011;1913;50.660;7.834;2023-05-10T08:07:37;18.03;;;10.27;;
3795;SDS011;1913;50.660;7.834;2023-05-10T08:10:02;19.07;;;10.60;;
3795;SDS011;1913;50.660;7.834;2023-05-10T08:12:28;14.97;;;9.60;;
3795;SDS011;1913;50.660;7.834;2023-05-10T08:14:53;15.77;;;10.00;;
3795;SDS011;1913;50.660;7.834;2023-05-10T08:17:19;13.50;;;9.03;;
3795;SDS011;1913;50.660;7.834;2023-05-10T08:19:44;12.63;;;8.43;;
3795;SDS011;1913;50.660;7.834;2023-05-10T08:22:09;10.93;;;7.90;;
3795;SDS011;1913;50.660;7.834;2023-05-10T08:24:35;12.63;;;7.30;;
3795;SDS011;1913;50.660;7.834;2023-05-10T08:27:04;11.70;;;8.90;;
3795;SDS011;1913;50.660;7.834;2023-05-10T08:29:30;11.47;;;7.80;;
3795;SDS011;1913;50.660;7.834;2023-05-10T08:31:55;15.00;;;9.47;;
3795;SDS011;1913;50.660;7.834;2023-05-10T08:34:21;12.90;;;8.70;;
3795;SDS011;1913;50.660;7.834;2023-05-10T08:36:46;11.40;;;8.00;;
3795;SDS011;1913;50.660;7.834;2023-05-10T08:39:12;14.70;;;8.93;;
3795;SDS011;1913;50.660;7.834;2023-05-10T08:41:37;15.13;;;8.93;;
3795;SDS011;1913;50.660;7.834;2023-05-10T08:44:04;12.27;;;8.43;;
3795;SDS011;1913;50.660;7.834;2023-05-10T08:46:31;15.93;;;8.20;;
3795;SDS011;1913;50.660;7.834;2023-05-10T08:49:03;12.70;;;6.63;;
3795;SDS011;1913;50.660;7.834;2023-05-10T08:51:34;8.20;;;6.33;;
3795;SDS011;1913;50.660;7.834;2023-05-10T08:54:05;15.00;;;6.67;;
3795;SDS011;1913;50.660;7.834;2023-05-10T08:56:32;8.63;;;6.17;;
3795;SDS011;1913;50.660;7.834;2023-05-10T08:58:57;14.23;;;5.87;;
3795;SDS011;1913;50.660;7.834;2023-05-10T09:01:23;6.77;;;5.17;;
3795;SDS011;1913;50.660;7.834;2023-05-10T09:03:49;5.43;;;4.50;;
3795;SDS011;1913;50.660;7.834;2023-05-10T09:06:15;9.00;;;4.97;;
3795;SDS011;1913;50.660;7.834;2023-05-10T09:08:41;12.50;;;5.33;;
3795;SDS011;1913;50.660;7.834;2023-05-10T09:11:08;9.37;;;5.10;;
3795;SDS011;1913;50.660;7.834;2023-05-10T09:13:35;6.40;;;3.70;;
3795;SDS011;1913;50.660;7.834;2023-05-10T09:16:02;4.10;;;3.33;;
3795;SDS011;1913;50.660;7.834;2023-05-10T09:18:30;3.20;;;2.80;;
3795;SDS011;1913;50.660;7.834;2023-05-10T09:20:56;3.50;;;3.10;;
3795;SDS011;1913;50.660;7.834;2023-05-10T09:23:21;4.03;;;3.40;;
3795;SDS011;1913;50.660;7.834;2023-05-10T09:26:02;4.33;;;3.23;;
3795;SDS011;1913;50.660;7.834;2023-05-10T09:28:53;3.07;;;2.77;;
3795;SDS011;1913;50.660;7.834;2023-05-10T09:31:21;7.27;;;4.20;;
3795;SDS011;1913;50.660;7.834;2023-05-10T09:34:06;5.83;;;4.20;;
3795;SDS011;1913;50.660;7.834;2023-05-10T09:36:55;6.40;;;3.40;;
3795;SDS011;1913;50.660;7.834;2023-05-10T09:39:42;3.57;;;3.10;;
3795;SDS011;1913;50.660;7.834;2023-05-10T09:42:27;5.00;;;3.70;;
3795;SDS011;1913;50.660;7.834;2023-05-10T09:44:53;5.00;;;3.73;;
3795;SDS011;1913;50.660;7.834;2023-05-10T09:47:18;4.20;;;3.30;;
3795;SDS011;1913;50.660;7.834;2023-05-10T09:49:44;5.60;;;3.60;;
3795;SDS011;1913;50.660;7.834;2023-05-10T09:52:14;5.97;;;3.77;;
3795;SDS011;1913;50.660;7.834;2023-05-10T09:54:42;5.67;;;4.20;;
3795;SDS011;1913;50.660;7.834;2023-05-10T09:57:20;6.13;;;4.20;;
3795;SDS011;1913;50.660;7.834;2023-05-10T09:59:47;4.80;;;4.07;;
3795;SDS011;1913;50.660;7.834;2023-05-10T10:02:13;5.80;;;3.90;;
3795;SDS011;1913;50.660;7.834;2023-05-10T10:04:39;5.17;;;4.37;;
3795;SDS011;1913;50.660;7.834;2023-05-10T10:07:05;6.70;;;3.93;;
3795;SDS011;1913;50.660;7.834;2023-05-10T10:09:31;6.10;;;3.70;;
3795;SDS011;1913;50.660;7.834;2023-05-10T10:11:58;5.70;;;4.07;;
3795;SDS011;1913;50.660;7.834;2023-05-10T10:14:24;4.47;;;3.73;;
3795;SDS011;1913;50.660;7.834;2023-05-10T10:16:50;6.07;;;3.97;;
3795;SDS011;1913;50.660;7.834;2023-05-10T10:19:17;4.40;;;3.70;;
3795;SDS011;1913;50.660;7.834;2023-05-10T10:21:43;6.97;;;3.97;;
3795;SDS011;1913;50.660;7.834;2023-05-10T10:24:09;4.23;;;3.40;;
3795;SDS011;1913;50.660;7.834;2023-05-10T10:26:34;6.57;;;3.27;;
3795;SDS011;1913;50.660;7.834;2023-05-10T10:31:50;3.90;;;3.30;;
3795;SDS011;1913;50.660;7.834;2023-05-10T10:34:38;4.50;;;3.07;;
3795;SDS011;1913;50.660;7.834;2023-05-10T10:37:04;6.10;;;2.80;;
3795;SDS011;1913;50.660;7.834;2023-05-10T10:39:31;4.77;;;3.40;;
3795;SDS011;1913;50.660;7.834;2023-05-10T10:41:57;2.67;;;2.10;;
3795;SDS011;1913;50.660;7.834;2023-05-10T10:47:20;1.03;;;1.00;;
3795;SDS011;1913;50.660;7.834;2023-05-10T10:50:13;2.53;;;1.20;;
3795;SDS011;1913;50.660;7.834;2023-05-10T10:52:38;1.20;;;1.10;;
3795;SDS011;1913;50.660;7.834;2023-05-10T10:55:08;2.30;;;1.27;;
3795;SDS011;1913;50.660;7.834;2023-05-10T11:00:29;2.00;;;1.23;;
3795;SDS011;1913;50.660;7.834;2023-05-10T11:08:12;2.43;;;1.40;;
3795;SDS011;1913;50.660;7.834;2023-05-10T11:10:48;2.40;;;1.37;;
3795;SDS011;1913;50.660;7.834;2023-05-10T11:13:41;2.30;;;1.30;;
3795;SDS011;1913;50.660;7.834;2023-05-10T11:16:40;2.33;;;1.40;;
3795;SDS011;1913;50.660;7.834;2023-05-10T11:19:27;2.10;;;1.23;;
3795;SDS011;1913;50.660;7.834;2023-05-10T11:24:36;1.23;;;1.13;;
3795;SDS011;1913;50.660;7.834;2023-05-10T11:27:22;1.70;;;1.60;;
3795;SDS011;1913;50.660;7.834;2023-05-10T11:29:50;1.33;;;1.23;;
3795;SDS011;1913;50.660;7.834;2023-05-10T11:32:16;4.33;;;1.50;;
3795;SDS011;1913;50.660;7.834;2023-05-10T11:34:42;1.60;;;1.50;;
3795;SDS011;1913;50.660;7.834;2023-05-10T11:37:13;2.80;;;2.20;;
3795;SDS011;1913;50.660;7.834;2023-05-10T11:39:38;3.83;;;1.90;;
3795;SDS011;1913;50.660;7.834;2023-05-10T11:42:03;2.10;;;1.60;;
3795;SDS011;1913;50.660;7.834;2023-05-10T11:44:32;1.97;;;1.80;;
3795;SDS011;1913;50.660;7.834;2023-05-10T11:46:58;2.00;;;1.73;;
3795;SDS011;1913;50.660;7.834;2023-05-10T11:49:25;3.10;;;2.10;;
3795;SDS011;1913;50.660;7.834;2023-05-10T11:51:51;3.13;;;2.00;;
3795;SDS011;1913;50.660;7.834;2023-05-10T11:54:16;3.27;;;2.13;;
3795;SDS011;1913;50.660;7.834;2023-05-10T11:56:41;2.40;;;2.20;;
3795;SDS011;1913;50.660;7.834;2023-05-10T11:59:07;2.30;;;2.20;;
3795;SDS011;1913;50.660;7.834;2023-05-10T12:01:33;2.50;;;2.30;;
3795;SDS011;1913;50.660;7.834;2023-05-10T12:03:59;2.60;;;2.40;;
3795;SDS011;1913;50.660;7.834;2023-05-10T12:06:26;2.87;;;2.47;;
3795;SDS011;1913;50.660;7.834;2023-05-10T12:08:53;2.40;;;2.20;;
3795;SDS011;1913;50.660;7.834;2023-05-10T12:11:19;2.00;;;1.90;;
3795;SDS011;1913;50.660;7.834;2023-05-10T12:13:46;1.90;;;1.80;;
3795;SDS011;1913;50.660;7.834;2023-05-10T12:16:33;1.90;;;1.70;;
3795;SDS011;1913;50.660;7.834;2023-05-10T12:18:59;2.50;;;2.30;;
3795;SDS011;1913;50.660;7.834;2023-05-10T12:21:25;2.20;;;2.00;;
3795;SDS011;1913;50.660;7.834;2023-05-10T12:23:53;2.37;;;1.77;;
3795;SDS011;1913;50.660;7.834;2023-05-10T12:26:24;1.93;;;1.80;;
3795;SDS011;1913;50.660;7.834;2023-05-10T12:28:52;1.90;;;1.70;;
3795;SDS011;1913;50.660;7.834;2023-05-10T12:34:25;1.50;;;1.40;;
3795;SDS011;1913;50.660;7.834;2023-05-10T12:37:02;1.90;;;1.80;;
3795;SDS011;1913;50.660;7.834;2023-05-10T12:39:41;1.90;;;1.70;;
3795;SDS011;1913;50.660;7.834;2023-05-10T12:42:07;1.60;;;1.50;;
3795;SDS011;1913;50.660;7.834;2023-05-10T12:44:34;1.40;;;1.30;;
3795;SDS011;1913;50.660;7.834;2023-05-10T12:47:00;2.80;;;1.50;;
3795;SDS011;1913;50.660;7.834;2023-05-10T12:49:25;3.60;;;2.73;;
3795;SDS011;1913;50.660;7.834;2023-05-10T12:51:51;3.87;;;3.10;;
3795;SDS011;1913;50.660;7.834;2023-05-10T12:54:16;4.23;;;3.40;;
3795;SDS011;1913;50.660;7.834;2023-05-10T12:56:42;7.43;;;3.90;;
3795;SDS011;1913;50.660;7.834;2023-05-10T12:59:28;7.40;;;5.30;;
3795;SDS011;1913;50.660;7.834;2023-05-10T13:02:13;9.60;;;5.50;;
3795;SDS011;1913;50.660;7.834;2023-05-10T13:04:59;11.27;;;6.13;;
3795;SDS011;1913;50.660;7.834;2023-05-10T13:07:45;10.50;;;6.40;;
3795;SDS011;1913;50.660;7.834;2023-05-10T13:10:11;12.47;;;8.13;;
3795;SDS011;1913;50.660;7.834;2023-05-10T13:12:56;13.90;;;8.43;;
3795;SDS011;1913;50.660;7.834;2023-05-10T13:15:42;14.27;;;9.63;;
3795;SDS011;1913;50.660;7.834;2023-05-10T13:18:07;14.47;;;9.30;;
3795;SDS011;1913;50.660;7.834;2023-05-10T13:20:53;12.93;;;9.17;;
3795;SDS011;1913;50.660;7.834;2023-05-10T13:23:39;13.63;;;9.27;;
3795;SDS011;1913;50.660;7.834;2023-05-10T13:26:25;14.10;;;9.43;;
3795;SDS011;1913;50.660;7.834;2023-05-10T13:28:50;15.73;;;10.37;;
3795;SDS011;1913;50.660;7.834;2023-05-10T13:31:16;17.13;;;10.50;;
3795;SDS011;1913;50.660;7.834;2023-05-10T13:33:42;13.27;;;8.80;;
3795;SDS011;1913;50.660;7.834;2023-05-10T13:36:07;12.97;;;8.30;;
3795;SDS011;1913;50.660;7.834;2023-05-10T13:38:39;10.67;;;7.90;;
3795;SDS011;1913;50.660;7.834;2023-05-10T13:41:04;14.07;;;7.70;;
3795;SDS011;1913;50.660;7.834;2023-05-10T13:43:30;9.70;;;6.97;;
3795;SDS011;1913;50.660;7.834;2023-05-10T13:45:55;12.10;;;7.93;;
3795;SDS011;1913;50.660;7.834;2023-05-10T13:48:21;5.97;;;5.07;;
3795;SDS011;1913;50.660;7.834;2023-05-10T13:50:46;4.70;;;4.10;;
3795;SDS011;1913;50.660;7.834;2023-05-10T13:53:12;6.23;;;4.90;;
3795;SDS011;1913;50.660;7.834;2023-05-10T13:55:38;6.40;;;4.70;;
3795;SDS011;1913;50.660;7.834;2023-05-10T13:58:03;5.30;;;4.30;;
3795;SDS011;1913;50.660;7.834;2023-05-10T14:00:29;11.30;;;5.33;;
3795;SDS011;1913;50.660;7.834;2023-05-10T14:02:55;4.10;;;3.53;;
3795;SDS011;1913;50.660;7.834;2023-05-10T14:05:21;5.80;;;4.70;;
3795;SDS011;1913;50.660;7.834;2023-05-10T14:07:46;5.90;;;4.57;;
3795;SDS011;1913;50.660;7.834;2023-05-10T14:10:12;5.63;;;4.83;;
3795;SDS011;1913;50.660;7.834;2023-05-10T14:12:37;6.07;;;4.87;;
3795;SDS011;1913;50.660;7.834;2023-05-10T14:15:03;9.43;;;4.40;;
3795;SDS011;1913;50.660;7.834;2023-05-10T14:17:31;6.83;;;5.00;;
3795;SDS011;1913;50.660;7.834;2023-05-10T14:19:57;5.80;;;4.53;;
3795;SDS011;1913;50.660;7.834;2023-05-10T14:22:22;6.13;;;4.40;;
3795;SDS011;1913;50.660;7.834;2023-05-10T14:24:49;5.30;;;4.37;;
3795;SDS011;1913;50.660;7.834;2023-05-10T14:27:15;6.03;;;4.37;;
3795;SDS011;1913;50.660;7.834;2023-05-10T14:29:41;4.97;;;3.10;;
3795;SDS011;1913;50.660;7.834;2023-05-10T14:32:07;5.73;;;4.10;;
3795;SDS011;1913;50.660;7.834;2023-05-10T14:34:33;5.10;;;4.13;;
3795;SDS011;1913;50.660;7.834;2023-05-10T14:36:58;6.70;;;3.87;;
3795;SDS011;1913;50.660;7.834;2023-05-10T14:39:24;3.77;;;2.53;;
3795;SDS011;1913;50.660;7.834;2023-05-10T14:41:50;4.17;;;3.03;;
3795;SDS011;1913;50.660;7.834;2023-05-10T14:44:17;3.10;;;2.70;;
3795;SDS011;1913;50.660;7.834;2023-05-10T14:46:43;2.40;;;2.20;;
3795;SDS011;1913;50.660;7.834;2023-05-10T14:49:08;4.00;;;2.37;;
3795;SDS011;1913;50.660;7.834;2023-05-10T14:51:34;2.00;;;1.73;;
3795;SDS011;1913;50.660;7.834;2023-05-10T14:54:01;5.50;;;2.27;;
3795;SDS011;1913;50.660;7.834;2023-05-10T14:56:47;1.93;;;1.80;;
3795;SDS011;1913;50.660;7.834;2023-05-10T14:59:34;2.10;;;1.97;;
3795;SDS011;1913;50.660;7.834;2023-05-10T15:02:12;4.77;;;1.73;;
3795;SDS011;1913;50.660;7.834;2023-05-10T15:04:38;3.83;;;1.80;;
3795;SDS011;1913;50.660;7.834;2023-05-10T15:07:23;4.40;;;1.80;;
3795;SDS011;1913;50.660;7.834;2023-05-10T15:10:09;2.00;;;1.60;;
3795;SDS011;1913;50.660;7.834;2023-05-10T15:12:36;4.63;;;2.00;;
3795;SDS011;1913;50.660;7.834;2023-05-10T15:15:22;2.67;;;1.57;;
3795;SDS011;1913;50.660;7.834;2023-05-10T15:17:48;2.03;;;1.60;;
3795;SDS011;1913;50.660;7.834;2023-05-10T15:20:33;2.43;;;1.80;;
3795;SDS011;1913;50.660;7.834;2023-05-10T15:23:19;3.53;;;1.30;;
3795;SDS011;1913;50.660;7.834;2023-05-10T15:26:04;3.60;;;1.63;;
3795;SDS011;1913;50.660;7.834;2023-05-10T15:28:30;2.80;;;1.70;;
3795;SDS011;1913;50.660;7.834;2023-05-10T15:30:55;2.37;;;1.27;;
3795;SDS011;1913;50.660;7.834;2023-05-10T15:33:21;5.20;;;2.70;;
3795;SDS011;1913;50.660;7.834;2023-05-10T15:35:47;3.80;;;3.10;;
3795;SDS011;1913;50.660;7.834;2023-05-10T15:38:12;3.80;;;3.30;;
3795;SDS011;1913;50.660;7.834;2023-05-10T15:40:38;4.77;;;3.50;;
3795;SDS011;1913;50.660;7.834;2023-05-10T15:43:03;6.17;;;4.30;;
3795;SDS011;1913;50.660;7.834;2023-05-10T15:45:30;6.20;;;3.73;;
3795;SDS011;1913;50.660;7.834;2023-05-10T15:47:55;5.77;;;4.20;;
3795;SDS011;1913;50.660;7.834;2023-05-10T15:50:21;6.00;;;4.33;;
3795;SDS011;1913;50.660;7.834;2023-05-10T15:52:46;4.63;;;3.60;;
3795;SDS011;1913;50.660;7.834;2023-05-10T15:55:12;3.40;;;3.10;;